Time;durP1;ratioP1;P1;durP2;ratioP2;P2;SDS_P1;SDS_P2;PMS_P1;PMS_P2;Temp;Humidity;BMP_temperature;BMP_pressure;BME280_temperature;BME280_humidity;BME280_pressure;Samples;Min_cycle;Max_cycle;Signal;HPM_P1;HPM_P2
2023/07/02 00:00:16;;;;;;;3.70;2.73;;;14.50;99.90;;;;;;478939;248;29225;-79
2023/07/02 00:02:19;;;;;;;3.10;2.90;;;14.50;99.90;;;;;;478938;248;29288;-78
2023/07/02 00:04:19;;;;;;;7.03;3.57;;;14.50;99.90;;;;;;478774;248;28725;-79
2023/07/02 00:06:20;;;;;;;4.30;3.43;;;14.50;99.90;;;;;;478987;248;28818;-79
2023/07/02 00:08:21;;;;;;;3.97;3.00;;;14.40;99.90;;;;;;478971;248;28758;-79
2023/07/02 00:10:22;;;;;;;6.27;3.40;;;14.30;99.90;;;;;;478969;248;28757;-79
2023/07/02 00:12:23;;;;;;;5.03;2.90;;;14.30;99.90;;;;;;478961;248;28552;-79
2023/07/02 00:14:24;;;;;;;6.03;3.40;;;14.30;99.90;;;;;;478853;248;28733;-78
2023/07/02 00:16:26;;;;;;;3.50;3.20;;;14.30;99.90;;;;;;478968;248;28876;-79
2023/07/02 00:18:33;;;;;;;5.60;3.70;;;14.20;99.90;;;;;;478984;246;28781;-78
2023/07/02 00:20:30;;;;;;;5.43;3.00;;;14.20;99.90;;;;;;478538;248;28725;-79
2023/07/02 00:22:30;;;;;;;3.43;3.07;;;14.20;99.90;;;;;;478894;248;29309;-79
2023/07/02 00:24:31;;;;;;;6.17;3.23;;;14.20;99.90;;;;;;478969;248;29282;-80
2023/07/02 00:26:32;;;;;;;3.10;2.90;;;14.20;99.90;;;;;;478955;248;29372;-78
2023/07/02 00:28:33;;;;;;;9.57;4.10;;;14.10;99.90;;;;;;478981;248;29244;-78
2023/07/02 00:30:35;;;;;;;3.97;3.00;;;14.10;99.90;;;;;;478993;248;28724;-78
2023/07/02 00:32:36;;;;;;;5.50;3.10;;;14.10;99.90;;;;;;478959;248;28761;-79
2023/07/02 00:34:37;;;;;;;3.90;2.90;;;14.20;99.90;;;;;;478933;248;28786;-79
2023/07/02 00:36:38;;;;;;;4.37;3.57;;;14.20;99.90;;;;;;478953;248;28754;-79
2023/07/02 00:38:40;;;;;;;3.33;3.03;;;14.20;99.90;;;;;;479002;246;28816;-79
2023/07/02 00:40:41;;;;;;;2.90;2.70;;;14.20;99.90;;;;;;478996;248;28310;-79
2023/07/02 00:42:42;;;;;;;3.67;3.37;;;14.20;99.90;;;;;;478969;248;28875;-79
2023/07/02 00:44:44;;;;;;;4.63;3.47;;;14.20;99.90;;;;;;478938;248;28719;-79
2023/07/02 00:46:45;;;;;;;8.73;3.20;;;14.10;99.90;;;;;;478897;248;28831;-79
2023/07/02 00:48:46;;;;;;;3.20;2.90;;;14.10;99.90;;;;;;478963;248;29267;-78
2023/07/02 00:50:47;;;;;;;3.07;2.73;;;14.10;99.90;;;;;;478982;248;29167;-78
2023/07/02 00:52:48;;;;;;;5.07;3.33;;;14.10;99.90;;;;;;478944;248;29285;-78
2023/07/02 00:54:50;;;;;;;3.27;2.80;;;14.10;99.90;;;;;;478850;248;28428;-79
2023/07/02 00:56:51;;;;;;;3.80;3.50;;;14.10;99.90;;;;;;478969;248;28726;-78
2023/07/02 00:58:52;;;;;;;3.30;2.80;;;14.10;99.90;;;;;;478960;248;28753;-78
2023/07/02 01:00:56;;;;;;;4.00;3.07;;;14.10;99.90;;;;;;478945;248;28725;-78
2023/07/02 01:02:58;;;;;;;3.73;3.03;;;14.10;99.90;;;;;;478700;248;28828;-79
2023/07/02 01:04:59;;;;;;;5.07;3.90;;;14.10;99.90;;;;;;478540;248;28726;-79
2023/07/02 01:06:57;;;;;;;4.03;3.30;;;14.20;99.90;;;;;;478713;245;28832;-79
2023/07/02 01:08:58;;;;;;;4.97;3.40;;;14.30;99.90;;;;;;478976;248;29098;-78
2023/07/02 01:11:00;;;;;;;10.17;3.77;;;14.30;99.90;;;;;;478977;248;28519;-79
2023/07/02 01:13:01;;;;;;;3.87;3.47;;;14.30;99.90;;;;;;478933;248;29455;-79
2023/07/02 01:15:02;;;;;;;6.07;3.60;;;14.30;99.90;;;;;;478843;248;28964;-79
2023/07/02 01:17:06;;;;;;;8.63;3.10;;;14.30;99.90;;;;;;478832;248;29264;-79
2023/07/02 01:19:08;;;;;;;6.87;3.63;;;14.30;99.90;;;;;;478930;248;28845;-78
2023/07/02 01:21:09;;;;;;;3.90;3.50;;;14.30;99.90;;;;;;478991;248;29395;-79
2023/07/02 01:23:10;;;;;;;3.33;3.03;;;14.20;99.90;;;;;;478930;248;29288;-79
2023/07/02 01:25:11;;;;;;;6.47;3.70;;;14.20;99.90;;;;;;478936;246;29381;-79
2023/07/02 01:27:13;;;;;;;4.60;4.03;;;14.20;99.90;;;;;;478950;246;29188;-79
2023/07/02 01:29:14;;;;;;;3.90;3.50;;;14.20;99.90;;;;;;478951;248;28750;-79
2023/07/02 01:31:15;;;;;;;5.00;3.30;;;14.10;99.90;;;;;;478960;248;28786;-79
2023/07/02 01:33:16;;;;;;;5.13;3.43;;;14.00;99.90;;;;;;478972;248;28715;-79
2023/07/02 01:35:18;;;;;;;3.93;3.30;;;14.10;99.90;;;;;;478952;248;28753;-78
2023/07/02 01:37:19;;;;;;;3.37;3.13;;;14.10;99.90;;;;;;478961;248;28753;-79
2023/07/02 01:39:20;;;;;;;6.00;3.80;;;14.00;99.90;;;;;;478932;248;28555;-79
2023/07/02 01:41:21;;;;;;;4.00;3.60;;;14.10;99.90;;;;;;478982;246;28791;-78
2023/07/02 01:43:23;;;;;;;3.80;3.30;;;14.10;99.90;;;;;;478967;248;28432;-79
2023/07/02 01:45:25;;;;;;;9.60;4.67;;;14.10;99.90;;;;;;478949;248;28749;-79
2023/07/02 01:47:25;;;;;;;6.50;3.60;;;14.10;99.90;;;;;;478931;248;30053;-79
2023/07/02 01:49:26;;;;;;;6.60;3.80;;;14.10;99.90;;;;;;478967;248;29253;-79
2023/07/02 01:51:28;;;;;;;4.47;4.07;;;14.10;99.90;;;;;;478996;242;29090;-79
2023/07/02 01:53:29;;;;;;;6.83;4.30;;;14.20;99.90;;;;;;478968;248;28423;-79
2023/07/02 01:55:30;;;;;;;6.07;3.73;;;14.20;99.90;;;;;;478969;248;28523;-79
2023/07/02 01:57:31;;;;;;;5.30;4.17;;;14.20;99.90;;;;;;478952;248;28477;-79
2023/07/02 01:59:33;;;;;;;5.83;4.43;;;14.20;99.90;;;;;;478934;248;28825;-78
2023/07/02 02:01:34;;;;;;;4.47;4.07;;;14.30;99.90;;;;;;478935;248;28854;-79
2023/07/02 02:03:35;;;;;;;14.87;3.90;;;14.30;99.90;;;;;;478946;248;28800;-79
2023/07/02 02:05:36;;;;;;;8.50;4.20;;;14.30;99.90;;;;;;478947;248;28775;-78
2023/07/02 02:07:38;;;;;;;4.03;3.73;;;14.20;99.90;;;;;;478928;248;28825;-78
2023/07/02 02:09:39;;;;;;;3.50;3.20;;;14.20;99.90;;;;;;478929;246;28749;-79
2023/07/02 02:11:40;;;;;;;5.20;3.73;;;14.20;99.90;;;;;;478953;248;29309;-79
2023/07/02 02:13:41;;;;;;;5.60;4.07;;;14.20;99.90;;;;;;478939;248;28934;-79
2023/07/02 02:15:43;;;;;;;4.20;3.80;;;14.20;99.90;;;;;;478984;248;29326;-79
2023/07/02 02:17:45;;;;;;;6.03;3.77;;;14.30;99.90;;;;;;478963;247;28817;-79
2023/07/02 02:19:45;;;;;;;7.40;3.70;;;14.30;99.90;;;;;;478888;248;28753;-78
2023/07/02 02:21:46;;;;;;;5.20;4.30;;;14.30;99.90;;;;;;478965;248;28833;-79
2023/07/02 02:23:48;;;;;;;6.00;3.73;;;14.30;99.90;;;;;;478952;248;28808;-79
2023/07/02 02:25:49;;;;;;;4.90;3.73;;;14.30;99.90;;;;;;478947;248;28535;-79
2023/07/02 02:27:50;;;;;;;6.93;4.23;;;14.30;99.90;;;;;;478915;248;28804;-79
2023/07/02 02:29:51;;;;;;;5.47;4.20;;;14.30;99.90;;;;;;478929;248;28545;-79
2023/07/02 02:31:53;;;;;;;7.13;4.50;;;14.30;99.90;;;;;;478956;248;28844;-79
2023/07/02 02:33:54;;;;;;;6.87;4.00;;;14.20;99.90;;;;;;478939;248;28731;-79
2023/07/02 02:35:55;;;;;;;5.10;3.80;;;14.20;99.90;;;;;;478914;248;29275;-78
2023/07/02 02:37:56;;;;;;;6.27;4.20;;;14.20;99.90;;;;;;478941;248;28904;-79
2023/07/02 02:39:58;;;;;;;9.20;4.40;;;14.20;99.90;;;;;;478923;248;29297;-79
2023/07/02 02:41:59;;;;;;;7.07;4.53;;;14.30;99.90;;;;;;478944;248;29185;-79
2023/07/02 02:44:00;;;;;;;6.30;4.30;;;14.20;99.90;;;;;;478957;248;28805;-79
2023/07/02 02:46:01;;;;;;;9.57;4.47;;;14.20;99.90;;;;;;478977;248;28754;-79
2023/07/02 02:48:03;;;;;;;6.70;4.70;;;14.20;99.90;;;;;;478975;248;28722;-79
2023/07/02 02:50:04;;;;;;;7.13;4.57;;;14.20;99.90;;;;;;478922;248;28825;-79
2023/07/02 02:52:05;;;;;;;10.20;5.60;;;14.10;99.90;;;;;;478943;248;28834;-78
2023/07/02 02:54:06;;;;;;;9.00;5.40;;;14.10;99.90;;;;;;478949;248;28777;-79
2023/07/02 02:56:08;;;;;;;6.60;5.17;;;14.10;99.90;;;;;;478851;248;29133;-79
2023/07/02 02:58:09;;;;;;;6.57;4.60;;;14.10;99.90;;;;;;478942;248;28769;-79
2023/07/02 03:00:11;;;;;;;13.93;5.50;;;14.20;99.90;;;;;;478938;248;29333;-78
2023/07/02 03:02:11;;;;;;;8.43;5.20;;;14.10;99.90;;;;;;478870;248;29066;-79
2023/07/02 03:04:13;;;;;;;7.63;4.90;;;14.10;99.90;;;;;;478950;246;29182;-78
2023/07/02 03:06:17;;;;;;;8.57;4.97;;;14.00;99.90;;;;;;478965;248;28806;-78
2023/07/02 03:08:15;;;;;;;9.53;5.33;;;14.00;99.90;;;;;;478702;248;28822;-79
2023/07/02 03:10:16;;;;;;;17.00;6.07;;;14.00;99.90;;;;;;478950;248;28763;-79
2023/07/02 03:12:18;;;;;;;8.17;5.73;;;13.80;99.90;;;;;;478953;248;28450;-79
2023/07/02 03:14:19;;;;;;;8.00;4.83;;;13.80;99.90;;;;;;478957;242;28439;-78
2023/07/02 03:16:21;;;;;;;8.50;5.57;;;13.70;99.90;;;;;;478974;245;28308;-79
2023/07/02 03:18:21;;;;;;;11.20;5.90;;;13.70;99.90;;;;;;478945;248;28475;-78
2023/07/02 03:20:23;;;;;;;15.57;5.97;;;13.70;99.90;;;;;;478992;248;28514;-78
2023/07/02 03:22:24;;;;;;;9.10;6.10;;;13.70;99.90;;;;;;478903;248;29694;-79
2023/07/02 03:24:25;;;;;;;7.70;4.97;;;13.60;99.90;;;;;;478955;248;29229;-79
2023/07/02 03:26:26;;;;;;;10.93;5.27;;;13.60;99.90;;;;;;478974;248;28857;-78
2023/07/02 03:28:28;;;;;;;6.17;5.30;;;13.60;99.90;;;;;;478958;248;28421;-79
2023/07/02 03:30:29;;;;;;;8.57;5.47;;;13.60;99.90;;;;;;478951;248;28441;-78
2023/07/02 03:32:30;;;;;;;8.20;6.33;;;13.60;99.90;;;;;;478955;248;28278;-78
2023/07/02 03:34:31;;;;;;;14.33;7.20;;;13.50;99.90;;;;;;478967;248;28467;-79
2023/07/02 03:36:33;;;;;;;13.53;6.10;;;13.50;99.90;;;;;;478984;248;28526;-79
2023/07/02 03:38:34;;;;;;;10.83;6.23;;;13.50;99.90;;;;;;478920;248;28193;-78
2023/07/02 03:40:35;;;;;;;14.17;5.90;;;13.60;99.90;;;;;;478876;245;28296;-79
2023/07/02 03:42:36;;;;;;;9.70;5.70;;;13.60;99.90;;;;;;478933;248;28309;-79
2023/07/02 03:44:38;;;;;;;10.73;6.40;;;13.70;99.90;;;;;;478889;248;29331;-79
2023/07/02 03:46:39;;;;;;;10.30;6.00;;;13.70;99.90;;;;;;478966;247;29258;-79
2023/07/02 03:48:40;;;;;;;10.90;6.30;;;13.80;99.90;;;;;;478972;246;28660;-79
2023/07/02 03:50:41;;;;;;;9.93;5.60;;;13.80;99.90;;;;;;478951;248;28455;-79
2023/07/02 03:52:43;;;;;;;8.50;5.40;;;13.90;99.90;;;;;;478873;248;28495;-78
2023/07/02 03:54:44;;;;;;;12.77;6.00;;;13.90;99.90;;;;;;478931;248;28447;-78
2023/07/02 03:56:45;;;;;;;12.50;7.10;;;13.90;99.90;;;;;;478958;248;28475;-79
2023/07/02 03:58:46;;;;;;;11.93;7.23;;;14.00;99.90;;;;;;478957;248;28313;-79
2023/07/02 04:00:49;;;;;;;15.33;7.33;;;14.00;99.90;;;;;;478956;248;28553;-78
2023/07/02 04:02:49;;;;;;;10.80;7.20;;;14.00;99.90;;;;;;478879;248;28303;-78
2023/07/02 04:04:50;;;;;;;10.40;6.53;;;14.00;99.90;;;;;;478970;248;28794;-78
2023/07/02 04:06:51;;;;;;;9.30;6.40;;;14.10;99.90;;;;;;478982;248;29266;-78
2023/07/02 04:08:53;;;;;;;9.90;6.37;;;14.10;99.90;;;;;;478954;248;28893;-79
2023/07/02 04:10:54;;;;;;;12.37;7.30;;;14.10;99.90;;;;;;478958;248;28775;-79
2023/07/02 04:12:55;;;;;;;10.20;6.73;;;14.10;99.90;;;;;;478911;248;28487;-79
2023/07/02 04:14:56;;;;;;;12.40;6.73;;;14.20;99.90;;;;;;478953;248;28804;-79
2023/07/02 04:16:58;;;;;;;12.03;6.33;;;14.20;99.90;;;;;;478938;248;28850;-79
2023/07/02 04:18:59;;;;;;;13.70;7.67;;;14.30;99.90;;;;;;478965;248;28801;-78
2023/07/02 04:21:00;;;;;;;10.50;7.17;;;14.30;99.90;;;;;;478767;248;28762;-79
2023/07/02 04:23:01;;;;;;;12.70;6.60;;;14.40;99.90;;;;;;478345;248;29355;-78
2023/07/02 04:25:03;;;;;;;11.93;6.83;;;14.40;99.90;;;;;;478866;248;29346;-79
2023/07/02 04:27:04;;;;;;;11.60;7.37;;;14.40;99.90;;;;;;478704;243;29344;-79
2023/07/02 04:29:05;;;;;;;10.40;7.20;;;14.40;99.90;;;;;;478951;247;28731;-78
2023/07/02 04:31:07;;;;;;;11.93;7.53;;;14.40;99.90;;;;;;478948;248;28853;-78
2023/07/02 04:33:08;;;;;;;10.17;7.00;;;14.40;99.90;;;;;;478830;248;28794;-78
2023/07/02 04:35:09;;;;;;;12.03;7.20;;;14.40;99.90;;;;;;478889;248;28765;-78
2023/07/02 04:37:10;;;;;;;12.30;7.70;;;14.50;99.90;;;;;;478862;248;29141;-78
2023/07/02 04:39:12;;;;;;;9.40;6.97;;;14.60;99.90;;;;;;478982;248;28766;-78
2023/07/02 04:41:13;;;;;;;8.27;6.30;;;14.50;99.90;;;;;;478968;248;28762;-78
2023/07/02 04:43:18;;;;;;;12.60;7.17;;;14.40;99.90;;;;;;478936;248;29184;-79
2023/07/02 04:45:15;;;;;;;15.40;8.53;;;14.40;99.90;;;;;;478688;248;29243;-79
2023/07/02 04:47:17;;;;;;;18.10;8.67;;;14.30;99.90;;;;;;478320;248;29347;-77
2023/07/02 04:49:18;;;;;;;11.07;7.70;;;14.30;99.90;;;;;;478974;248;28717;-79
2023/07/02 04:51:19;;;;;;;14.10;8.60;;;14.30;99.90;;;;;;478956;248;28766;-79
2023/07/02 04:53:20;;;;;;;13.90;7.83;;;14.30;99.90;;;;;;478862;248;28730;-79
2023/07/02 04:55:22;;;;;;;14.37;7.60;;;14.30;99.90;;;;;;478924;248;28774;-79
2023/07/02 04:57:23;;;;;;;12.97;7.57;;;14.30;99.90;;;;;;478951;248;28754;-79
2023/07/02 04:59:24;;;;;;;12.57;8.00;;;14.30;99.90;;;;;;478955;248;28826;-79
2023/07/02 05:01:25;;;;;;;13.00;8.50;;;14.40;99.90;;;;;;478972;245;29340;-78
2023/07/02 05:03:27;;;;;;;16.17;8.33;;;14.40;99.90;;;;;;478955;248;29182;-79
2023/07/02 05:05:28;;;;;;;18.83;9.07;;;14.30;99.90;;;;;;478956;248;29333;-79
2023/07/02 05:07:29;;;;;;;15.03;8.73;;;14.30;99.90;;;;;;478850;248;28804;-78
2023/07/02 05:09:30;;;;;;;16.90;9.10;;;14.30;99.90;;;;;;478962;248;28725;-78
2023/07/02 05:11:32;;;;;;;20.07;9.33;;;14.30;99.90;;;;;;478950;248;28765;-79
2023/07/02 05:13:33;;;;;;;15.70;9.20;;;14.30;99.90;;;;;;478975;248;28770;-79
2023/07/02 05:15:34;;;;;;;12.47;8.50;;;14.30;99.90;;;;;;478953;248;28854;-79
2023/07/02 05:17:36;;;;;;;13.33;8.10;;;14.30;99.90;;;;;;478962;248;28897;-79
2023/07/02 05:19:37;;;;;;;14.20;9.00;;;14.30;99.90;;;;;;478939;248;29192;-79
2023/07/02 05:21:38;;;;;;;18.33;8.70;;;14.30;99.90;;;;;;478946;248;29266;-79
2023/07/02 05:23:39;;;;;;;18.33;10.10;;;14.30;99.90;;;;;;478964;248;29183;-79
2023/07/02 05:25:40;;;;;;;15.57;8.30;;;14.30;99.90;;;;;;478800;248;28745;-79
2023/07/02 05:27:42;;;;;;;16.20;9.00;;;14.30;99.90;;;;;;478984;248;28732;-78
2023/07/02 05:29:43;;;;;;;11.60;8.90;;;14.30;99.90;;;;;;478986;248;28704;-78
2023/07/02 05:31:44;;;;;;;16.93;9.93;;;14.30;99.90;;;;;;478978;248;28771;-79
2023/07/02 05:33:45;;;;;;;18.23;9.13;;;14.40;99.90;;;;;;478953;248;28841;-79
2023/07/02 05:35:47;;;;;;;12.27;8.73;;;14.40;99.90;;;;;;478983;246;28840;-79
2023/07/02 05:37:48;;;;;;;16.43;8.90;;;14.40;99.90;;;;;;478951;248;29317;-79
2023/07/02 05:39:49;;;;;;;23.27;10.13;;;14.40;99.90;;;;;;478932;248;29265;-79
2023/07/02 05:41:50;;;;;;;15.27;9.93;;;14.50;99.90;;;;;;478957;248;28726;-79
2023/07/02 05:43:52;;;;;;;15.03;9.10;;;14.50;99.90;;;;;;478939;248;28749;-78
2023/07/02 05:45:53;;;;;;;16.40;9.10;;;14.50;99.90;;;;;;478849;248;28803;-79
2023/07/02 05:47:54;;;;;;;17.63;9.30;;;14.40;99.90;;;;;;478908;248;28748;-79
2023/07/02 05:49:55;;;;;;;13.30;8.60;;;14.50;99.90;;;;;;478906;248;28724;-79
2023/07/02 05:51:57;;;;;;;19.20;9.67;;;14.50;99.90;;;;;;478384;248;28750;-79
2023/07/02 05:53:58;;;;;;;13.67;8.73;;;14.50;99.90;;;;;;478623;247;28720;-79
2023/07/02 05:55:59;;;;;;;16.43;9.83;;;14.50;99.90;;;;;;478898;248;29315;-79
2023/07/02 05:58:02;;;;;;;14.47;9.00;;;14.60;99.90;;;;;;478983;248;29226;-78
2023/07/02 06:00:02;;;;;;;12.70;8.77;;;14.60;99.90;;;;;;478876;248;28810;-79
2023/07/02 06:02:03;;;;;;;13.43;8.30;;;14.60;99.90;;;;;;478953;248;28778;-79
2023/07/02 06:04:04;;;;;;;16.63;9.20;;;14.70;99.90;;;;;;478939;248;28688;-79
2023/07/02 06:06:05;;;;;;;16.30;9.17;;;14.70;99.90;;;;;;478935;248;28834;-79
2023/07/02 06:08:07;;;;;;;18.67;10.10;;;14.70;99.90;;;;;;478953;248;29138;-79
2023/07/02 06:10:08;;;;;;;14.37;9.03;;;14.70;99.90;;;;;;478970;248;28822;-79
2023/07/02 06:12:09;;;;;;;16.20;9.63;;;14.70;99.90;;;;;;478875;248;28760;-79
2023/07/02 06:14:11;;;;;;;14.30;9.97;;;14.80;99.90;;;;;;478952;248;29283;-78
2023/07/02 06:16:12;;;;;;;22.17;9.83;;;14.80;99.90;;;;;;478965;248;29375;-81
2023/07/02 06:18:13;;;;;;;15.60;9.80;;;14.90;99.90;;;;;;478979;248;28794;-78
2023/07/02 06:20:14;;;;;;;19.27;10.50;;;14.90;99.90;;;;;;478954;248;28730;-79
2023/07/02 06:22:16;;;;;;;17.57;9.17;;;14.90;99.90;;;;;;478990;248;28782;-79
2023/07/02 06:24:17;;;;;;;16.60;9.93;;;15.00;99.90;;;;;;478928;247;28823;-79
2023/07/02 06:26:18;;;;;;;18.80;11.73;;;15.00;99.90;;;;;;478943;248;28760;-78
2023/07/02 06:28:19;;;;;;;18.97;10.40;;;15.10;99.90;;;;;;478939;248;28807;-79
2023/07/02 06:30:21;;;;;;;21.50;10.80;;;15.10;99.90;;;;;;478917;248;29200;-79
2023/07/02 06:32:22;;;;;;;17.70;10.90;;;15.10;99.90;;;;;;478977;248;29259;-78
2023/07/02 06:34:23;;;;;;;21.97;11.10;;;15.10;99.90;;;;;;478978;243;28809;-79
2023/07/02 06:36:24;;;;;;;21.20;11.93;;;15.20;99.90;;;;;;478924;248;28847;-79
2023/07/02 06:38:26;;;;;;;21.90;10.87;;;15.20;99.90;;;;;;478946;248;29097;-79
2023/07/02 06:40:27;;;;;;;24.50;11.73;;;15.20;99.90;;;;;;478941;248;28755;-79
2023/07/02 06:42:28;;;;;;;19.77;12.13;;;15.20;99.90;;;;;;478955;248;28769;-79
2023/07/02 06:44:29;;;;;;;18.50;11.10;;;15.30;99.90;;;;;;478909;248;29200;-79
2023/07/02 06:46:31;;;;;;;18.80;11.90;;;15.30;99.90;;;;;;478928;248;29254;-78
2023/07/02 06:48:32;;;;;;;23.80;12.30;;;15.30;99.90;;;;;;478984;248;28744;-78
2023/07/02 06:50:33;;;;;;;23.17;11.37;;;15.30;99.90;;;;;;478979;248;28735;-79
2023/07/02 06:52:34;;;;;;;18.63;11.13;;;15.40;99.90;;;;;;478964;243;28815;-79
2023/07/02 06:54:36;;;;;;;22.03;12.77;;;15.70;99.90;;;;;;478985;248;28707;-79
2023/07/02 06:56:37;;;;;;;28.43;13.10;;;15.80;99.90;;;;;;478979;248;28847;-79
2023/07/02 06:58:38;;;;;;;23.30;13.77;;;15.80;99.90;;;;;;479010;248;29261;-79
2023/07/02 07:00:39;;;;;;;22.90;13.40;;;15.80;99.90;;;;;;478988;248;29277;-79
2023/07/02 07:02:41;;;;;;;25.03;13.47;;;15.80;99.90;;;;;;478926;248;28882;-79
2023/07/02 07:04:42;;;;;;;53.83;14.63;;;15.90;99.90;;;;;;478970;248;28757;-79
2023/07/02 07:06:43;;;;;;;22.73;12.30;;;16.20;99.90;;;;;;478919;248;28773;-79
2023/07/02 07:08:45;;;;;;;23.87;13.70;;;16.30;99.90;;;;;;478981;248;28784;-79
2023/07/02 07:10:46;;;;;;;21.57;14.17;;;16.70;99.90;;;;;;478981;248;28722;-79
2023/07/02 07:12:47;;;;;;;29.37;14.77;;;16.80;99.90;;;;;;478958;248;28795;-78
2023/07/02 07:14:48;;;;;;;29.60;16.87;;;16.90;99.90;;;;;;478936;248;29187;-80
2023/07/02 07:16:50;;;;;;;30.67;18.00;;;17.10;99.90;;;;;;478843;248;28875;-79
2023/07/02 07:18:51;;;;;;;34.67;18.23;;;17.10;99.90;;;;;;478914;248;28813;-79
2023/07/02 07:20:55;;;;;;;35.00;18.33;;;17.10;99.90;;;;;;478967;248;28760;-78
2023/07/02 07:22:56;;;;;;;29.53;18.10;;;17.00;99.90;;;;;;478949;248;28706;-79
2023/07/02 07:24:57;;;;;;;29.00;17.03;;;17.00;99.90;;;;;;478856;247;28774;-80
2023/07/02 07:26:58;;;;;;;34.40;17.53;;;16.60;99.90;;;;;;478895;248;28725;-79
2023/07/02 07:29:00;;;;;;;34.30;16.40;;;16.40;99.90;;;;;;478896;248;29239;-79
2023/07/02 07:31:01;;;;;;;28.23;17.20;;;16.20;99.90;;;;;;478940;248;29364;-79
2023/07/02 07:33:02;;;;;;;30.47;17.43;;;16.00;99.90;;;;;;478947;248;28833;-79
2023/07/02 07:35:03;;;;;;;29.67;17.87;;;16.00;99.90;;;;;;478871;248;28758;-79
2023/07/02 07:37:05;;;;;;;27.90;16.80;;;16.00;99.90;;;;;;478864;248;28732;-79
2023/07/02 07:39:06;;;;;;;34.60;18.40;;;16.00;99.90;;;;;;478897;246;28838;-79
2023/07/02 07:41:07;;;;;;;34.90;18.20;;;16.10;99.90;;;;;;478943;248;29303;-79
2023/07/02 07:43:09;;;;;;;33.00;17.23;;;16.30;99.90;;;;;;478953;248;29181;-80
2023/07/02 07:45:10;;;;;;;33.17;17.90;;;16.50;99.90;;;;;;478768;248;28865;-79
2023/07/02 07:47:11;;;;;;;26.33;16.80;;;16.60;99.90;;;;;;478931;242;28713;-79
2023/07/02 07:49:12;;;;;;;32.20;18.07;;;16.70;99.90;;;;;;478901;248;28817;-79
2023/07/02 07:51:14;;;;;;;32.13;18.07;;;16.90;99.90;;;;;;478958;248;28850;-78
2023/07/02 07:53:15;;;;;;;29.70;16.70;;;16.90;99.90;;;;;;478946;248;29309;-78
2023/07/02 07:55:16;;;;;;;31.73;16.63;;;16.90;99.90;;;;;;478937;248;29253;-79
2023/07/02 07:57:17;;;;;;;36.27;17.23;;;17.00;99.90;;;;;;478933;248;28707;-78
2023/07/02 07:59:19;;;;;;;30.63;17.70;;;17.00;99.90;;;;;;478958;248;28727;-79
2023/07/02 08:01:20;;;;;;;31.07;17.33;;;16.90;99.90;;;;;;478975;248;28760;-79
2023/07/02 08:03:21;;;;;;;29.33;16.33;;;16.90;99.90;;;;;;478971;248;28826;-79
2023/07/02 08:05:23;;;;;;;29.80;17.43;;;16.90;99.90;;;;;;478967;248;28874;-79
2023/07/02 08:07:24;;;;;;;25.60;15.60;;;17.10;99.90;;;;;;478949;248;30210;-79
2023/07/02 08:09:25;;;;;;;31.17;16.90;;;17.20;99.90;;;;;;478798;248;29379;-79
2023/07/02 08:11:26;;;;;;;30.20;16.70;;;17.30;99.90;;;;;;478971;248;28764;-79
2023/07/02 08:13:27;;;;;;;26.90;16.40;;;17.70;99.90;;;;;;478963;248;28712;-79
2023/07/02 08:15:29;;;;;;;25.73;16.10;;;17.90;99.90;;;;;;478919;248;28836;-79
2023/07/02 08:17:33;;;;;;;31.43;17.27;;;18.10;99.90;;;;;;478948;246;28722;-79
2023/07/02 08:19:34;;;;;;;32.17;16.60;;;18.20;99.90;;;;;;478958;248;29183;-78
2023/07/02 08:21:35;;;;;;;26.07;16.40;;;18.00;99.90;;;;;;478942;248;29224;-79
2023/07/02 08:23:37;;;;;;;33.43;17.07;;;17.70;99.90;;;;;;478987;248;28764;-80
2023/07/02 08:25:38;;;;;;;32.97;17.30;;;17.60;99.90;;;;;;478983;248;28769;-79
2023/07/02 08:27:39;;;;;;;33.43;17.30;;;17.40;99.90;;;;;;478982;248;28762;-79
2023/07/02 08:29:40;;;;;;;34.20;16.80;;;17.50;99.90;;;;;;478965;248;28722;-79
2023/07/02 08:31:42;;;;;;;31.80;16.93;;;17.60;99.90;;;;;;478956;248;28743;-78
2023/07/02 08:33:43;;;;;;;32.57;16.80;;;17.70;99.90;;;;;;478944;248;29303;-78
2023/07/02 08:35:44;;;;;;;25.57;15.93;;;17.80;99.90;;;;;;478949;248;29273;-79
2023/07/02 08:37:45;;;;;;;31.03;16.67;;;17.80;99.90;;;;;;478932;248;28762;-79
2023/07/02 08:39:46;;;;;;;30.97;16.97;;;17.70;99.90;;;;;;478978;248;28735;-78
2023/07/02 08:41:48;;;;;;;26.33;16.10;;;17.70;99.90;;;;;;478955;248;28736;-79
2023/07/02 08:43:49;;;;;;;32.03;16.47;;;17.90;99.90;;;;;;479007;248;28767;-79
2023/07/02 08:45:50;;;;;;;28.20;16.03;;;18.00;99.90;;;;;;478949;248;28821;-79
2023/07/02 08:47:54;;;;;;;30.70;17.57;;;18.30;99.90;;;;;;478978;248;29235;-78
2023/07/02 08:49:53;;;;;;;32.70;17.60;;;18.60;99.90;;;;;;478731;248;29333;-79
2023/07/02 08:51:54;;;;;;;37.20;19.17;;;18.40;99.90;;;;;;478949;248;28804;-78
2023/07/02 08:53:55;;;;;;;27.13;16.20;;;18.50;99.90;;;;;;478956;248;28829;-79
2023/07/02 08:55:57;;;;;;;34.20;16.70;;;18.40;99.90;;;;;;478950;248;28794;-79
2023/07/02 08:57:59;;;;;;;33.37;17.10;;;18.30;99.90;;;;;;478952;248;28759;-79
2023/07/02 08:59:59;;;;;;;29.77;17.30;;;18.10;99.90;;;;;;478864;248;28803;-79
2023/07/02 09:02:00;;;;;;;33.40;17.70;;;18.10;99.90;;;;;;478948;248;29226;-79
2023/07/02 09:04:02;;;;;;;27.27;15.93;;;18.00;99.90;;;;;;478945;248;29306;-79
2023/07/02 09:06:03;;;;;;;30.70;17.27;;;18.20;99.90;;;;;;478856;248;28841;-79
2023/07/02 09:08:04;;;;;;;33.10;19.53;;;18.20;99.90;;;;;;478982;248;28786;-79
2023/07/02 09:10:05;;;;;;;30.20;18.57;;;18.20;99.90;;;;;;478963;248;28796;-79
2023/07/02 09:12:07;;;;;;;34.27;19.00;;;18.00;99.90;;;;;;478858;248;28735;-79
2023/07/02 09:14:08;;;;;;;35.10;17.40;;;18.00;99.90;;;;;;478966;248;29115;-79
2023/07/02 09:16:09;;;;;;;34.20;18.60;;;18.20;99.90;;;;;;478954;248;28720;-79
2023/07/02 09:18:10;;;;;;;32.57;19.07;;;18.30;99.90;;;;;;478949;246;29291;-80
2023/07/02 09:20:12;;;;;;;32.60;17.50;;;18.40;99.90;;;;;;478910;248;29178;-79
2023/07/02 09:22:15;;;;;;;32.03;17.17;;;18.40;99.90;;;;;;478919;248;28743;-79
2023/07/02 09:24:14;;;;;;;34.23;16.40;;;18.70;99.90;;;;;;478844;248;28868;-79
2023/07/02 09:26:15;;;;;;;39.93;18.97;;;19.00;99.90;;;;;;478901;248;28723;-79
2023/07/02 09:28:17;;;;;;;31.00;17.40;;;19.20;99.90;;;;;;478932;248;28773;-79
2023/07/02 09:30:18;;;;;;;30.63;17.13;;;19.10;99.90;;;;;;478928;248;28719;-80
2023/07/02 09:32:19;;;;;;;28.30;16.30;;;19.00;99.90;;;;;;478915;248;29365;-80
2023/07/02 09:34:20;;;;;;;28.80;15.82;;;18.70;99.90;;;;;;476475;248;36594;-79
2023/07/02 09:36:22;;;;;;;27.17;16.27;;;18.30;99.90;;;;;;478975;248;27384;-80
2023/07/02 09:38:23;;;;;;;28.07;16.03;;;18.30;99.90;;;;;;478953;248;28824;-79
2023/07/02 09:40:28;;;;;;;32.60;16.50;;;18.50;99.90;;;;;;478962;248;28813;-80
2023/07/02 09:42:25;;;;;;;31.33;17.50;;;18.70;99.90;;;;;;478638;248;28767;-80
2023/07/02 09:44:27;;;;;;;30.27;17.40;;;18.70;99.90;;;;;;478954;248;28901;-79
2023/07/02 09:46:28;;;;;;;31.33;16.50;;;18.70;99.90;;;;;;478984;248;29183;-80
2023/07/02 09:48:29;;;;;;;32.57;17.30;;;18.90;99.90;;;;;;478946;248;29326;-79
2023/07/02 09:50:31;;;;;;;33.60;16.77;;;19.20;99.90;;;;;;478945;248;28698;-79
2023/07/02 09:52:32;;;;;;;29.00;16.73;;;19.30;99.90;;;;;;478918;248;28777;-79
2023/07/02 09:54:33;;;;;;;28.97;15.63;;;19.30;99.90;;;;;;478948;248;28755;-80
2023/07/02 09:56:34;;;;;;;30.67;15.47;;;19.10;99.90;;;;;;478958;248;28826;-79
2023/07/02 09:58:36;;;;;;;24.00;15.20;;;19.30;99.90;;;;;;478971;247;28803;-80
2023/07/02 10:00:37;;;;;;;25.67;15.57;;;19.30;99.90;;;;;;478951;248;29292;-80
2023/07/02 10:02:38;;;;;;;25.00;15.20;;;19.50;99.90;;;;;;478945;248;29255;-79
2023/07/02 10:04:39;;;;;;;32.03;15.00;;;19.70;99.90;;;;;;478946;248;28871;-80
2023/07/02 10:06:41;;;;;;;30.73;16.57;;;20.00;99.90;;;;;;478939;246;28802;-79
2023/07/02 10:08:42;;;;;;;32.07;15.90;;;20.10;99.90;;;;;;478948;248;28766;-80
2023/07/02 10:10:43;;;;;;;27.93;15.80;;;20.30;99.90;;;;;;478940;248;28771;-80
2023/07/02 10:12:44;;;;;;;28.30;16.43;;;20.10;99.90;;;;;;478917;248;28762;-80
2023/07/02 10:14:46;;;;;;;31.07;16.27;;;19.60;99.90;;;;;;478953;248;29264;-80
2023/07/02 10:16:47;;;;;;;27.43;16.43;;;19.40;99.90;;;;;;478935;248;29263;-80
2023/07/02 10:18:48;;;;;;;34.97;16.27;;;19.00;99.90;;;;;;478918;248;28748;-80
2023/07/02 10:20:49;;;;;;;35.03;16.43;;;18.90;99.90;;;;;;478928;248;28713;-79